sensor_id;sensor_type;location;lat;lon;timestamp;temperature;humidity
4604;DHT22;2314;48.272;11.562;2023-03-17T00:01:10;1.10;99.90
4604;DHT22;2314;48.272;11.562;2023-03-17T00:03:39;1.10;99.90
4604;DHT22;2314;48.272;11.562;2023-03-17T00:06:12;1.10;99.90
4604;DHT22;2314;48.272;11.562;2023-03-17T00:08:42;1.10;99.90
4604;DHT22;2314;48.272;11.562;2023-03-17T00:11:10;1.10;99.90
4604;DHT22;2314;48.272;11.562;2023-03-17T00:13:38;1.00;99.90
4604;DHT22;2314;48.272;11.562;2023-03-17T00:16:12;1.00;99.90
4604;DHT22;2314;48.272;11.562;2023-03-17T00:18:45;0.90;99.90
4604;DHT22;2314;48.272;11.562;2023-03-17T00:21:14;0.90;99.90
4604;DHT22;2314;48.272;11.562;2023-03-17T00:23:48;0.90;99.90
4604;DHT22;2314;48.272;11.562;2023-03-17T00:26:18;0.90;99.90
4604;DHT22;2314;48.272;11.562;2023-03-17T00:28:45;0.90;99.90
4604;DHT22;2314;48.272;11.562;2023-03-17T00:31:16;0.90;99.90
4604;DHT22;2314;48.272;11.562;2023-03-17T00:33:45;0.90;99.90
4604;DHT22;2314;48.272;11.562;2023-03-17T00:36:16;0.90;99.90
4604;DHT22;2314;48.272;11.562;2023-03-17T00:38:45;0.90;99.90
4604;DHT22;2314;48.272;11.562;2023-03-17T00:41:12;0.80;99.90
4604;DHT22;2314;48.272;11.562;2023-03-17T00:43:39;0.80;99.90
4604;DHT22;2314;48.272;11.562;2023-03-17T00:46:11;0.80;99.90
4604;DHT22;2314;48.272;11.562;2023-03-17T00:48:42;0.80;99.90
4604;DHT22;2314;48.272;11.562;2023-03-17T00:51:10;0.80;99.90
4604;DHT22;2314;48.272;11.562;2023-03-17T00:53:37;0.80;99.90
4604;DHT22;2314;48.272;11.562;2023-03-17T00:56:10;0.70;99.90
4604;DHT22;2314;48.272;11.562;2023-03-17T00:58:39;0.70;99.90
4604;DHT22;2314;48.272;11.562;2023-03-17T01:01:06;0.70;99.90
4604;DHT22;2314;48.272;11.562;2023-03-17T01:03:37;0.60;99.90
4604;DHT22;2314;48.272;11.562;2023-03-17T01:06:09;0.60;99.90
4604;DHT22;2314;48.272;11.562;2023-03-17T01:08:38;0.60;99.90
4604;DHT22;2314;48.272;11.562;2023-03-17T01:11:08;0.50;99.90
4604;DHT22;2314;48.272;11.562;2023-03-17T01:13:40;0.40;99.90
4604;DHT22;2314;48.272;11.562;2023-03-17T01:16:09;0.40;99.90
4604;DHT22;2314;48.272;11.562;2023-03-17T01:18:38;0.40;99.90
4604;DHT22;2314;48.272;11.562;2023-03-17T01:21:05;0.40;99.90
4604;DHT22;2314;48.272;11.562;2023-03-17T01:23:35;0.40;99.90
4604;DHT22;2314;48.272;11.562;2023-03-17T01:26:02;0.40;99.90
4604;DHT22;2314;48.272;11.562;2023-03-17T01:28:33;0.30;99.90
4604;DHT22;2314;48.272;11.562;2023-03-17T01:31:00;0.30;99.90
4604;DHT22;2314;48.272;11.562;2023-03-17T01:33:28;0.30;99.90
4604;DHT22;2314;48.272;11.562;2023-03-17T01:35:56;0.30;99.90
4604;DHT22;2314;48.272;11.562;2023-03-17T01:38:26;0.20;99.90
4604;DHT22;2314;48.272;11.562;2023-03-17T01:40:54;0.20;99.90
4604;DHT22;2314;48.272;11.562;2023-03-17T01:43:23;0.10;99.90
4604;DHT22;2314;48.272;11.562;2023-03-17T01:46:23;0.20;99.90
4604;DHT22;2314;48.272;11.562;2023-03-17T01:48:57;0.10;99.90
4604;DHT22;2314;48.272;11.562;2023-03-17T01:51:33;0.00;99.90
4604;DHT22;2314;48.272;11.562;2023-03-17T01:54:06;0.00;99.90
4604;DHT22;2314;48.272;11.562;2023-03-17T01:56:36;0.00;99.90
4604;DHT22;2314;48.272;11.562;2023-03-17T01:59:06;0.00;99.90
4604;DHT22;2314;48.272;11.562;2023-03-17T02:01:37;0.00;99.90
4604;DHT22;2314;48.272;11.562;2023-03-17T02:04:13;0.00;99.90
4604;DHT22;2314;48.272;11.562;2023-03-17T02:06:42;0.00;99.90
4604;DHT22;2314;48.272;11.562;2023-03-17T02:09:09;0.00;99.90
4604;DHT22;2314;48.272;11.562;2023-03-17T02:11:37;-0.10;99.90
4604;DHT22;2314;48.272;11.562;2023-03-17T02:14:05;-0.10;99.90
4604;DHT22;2314;48.272;11.562;2023-03-17T02:16:32;-0.20;99.90
4604;DHT22;2314;48.272;11.562;2023-03-17T02:18:59;-0.20;99.90
4604;DHT22;2314;48.272;11.562;2023-03-17T02:21:41;-0.20;99.90
4604;DHT22;2314;48.272;11.562;2023-03-17T02:24:18;-0.20;99.90
4604;DHT22;2314;48.272;11.562;2023-03-17T02:26:48;-0.20;99.90
4604;DHT22;2314;48.272;11.562;2023-03-17T02:29:19;-0.20;99.90
4604;DHT22;2314;48.272;11.562;2023-03-17T02:31:47;-0.20;99.90
4604;DHT22;2314;48.272;11.562;2023-03-17T02:34:14;-0.20;99.90
4604;DHT22;2314;48.272;11.562;2023-03-17T02:36:42;-0.30;99.90
4604;DHT22;2314;48.272;11.562;2023-03-17T02:39:11;-0.30;99.90
4604;DHT22;2314;48.272;11.562;2023-03-17T02:41:38;-0.30;99.90
4604;DHT22;2314;48.272;11.562;2023-03-17T02:44:05;-0.30;99.90
4604;DHT22;2314;48.272;11.562;2023-03-17T02:46:32;-0.20;99.90
4604;DHT22;2314;48.272;11.562;2023-03-17T02:49:00;-0.20;99.90
4604;DHT22;2314;48.272;11.562;2023-03-17T02:51:28;-0.20;99.90
4604;DHT22;2314;48.272;11.562;2023-03-17T02:53:56;-0.20;99.90
4604;DHT22;2314;48.272;11.562;2023-03-17T02:56:23;-0.20;99.90
4604;DHT22;2314;48.272;11.562;2023-03-17T02:58:50;-0.20;99.90
4604;DHT22;2314;48.272;11.562;2023-03-17T03:01:17;-0.20;99.90
4604;DHT22;2314;48.272;11.562;2023-03-17T03:03:58;-0.10;99.90
4604;DHT22;2314;48.272;11.562;2023-03-17T03:06:25;-0.20;99.90
4604;DHT22;2314;48.272;11.562;2023-03-17T03:08:52;-0.20;99.90
4604;DHT22;2314;48.272;11.562;2023-03-17T03:11:21;-0.10;99.90
4604;DHT22;2314;48.272;11.562;2023-03-17T03:13:48;-0.10;99.90
4604;DHT22;2314;48.272;11.562;2023-03-17T03:16:15;0.00;99.90
4604;DHT22;2314;48.272;11.562;2023-03-17T03:18:42;0.00;99.90
4604;DHT22;2314;48.272;11.562;2023-03-17T03:21:10;0.00;99.90
4604;DHT22;2314;48.272;11.562;2023-03-17T03:23:37;0.00;99.90
4604;DHT22;2314;48.272;11.562;2023-03-17T03:26:04;0.10;99.90
4604;DHT22;2314;48.272;11.562;2023-03-17T03:28:33;0.10;99.90
4604;DHT22;2314;48.272;11.562;2023-03-17T03:31:00;0.20;99.90
4604;DHT22;2314;48.272;11.562;2023-03-17T03:33:27;0.20;99.90
4604;DHT22;2314;48.272;11.562;2023-03-17T03:35:54;0.20;99.90
4604;DHT22;2314;48.272;11.562;2023-03-17T03:38:22;0.20;99.90
4604;DHT22;2314;48.272;11.562;2023-03-17T03:40:49;0.20;99.90
4604;DHT22;2314;48.272;11.562;2023-03-17T03:43:16;0.20;99.90
4604;DHT22;2314;48.272;11.562;2023-03-17T03:45:44;0.20;99.90
4604;DHT22;2314;48.272;11.562;2023-03-17T03:48:11;0.20;99.90
4604;DHT22;2314;48.272;11.562;2023-03-17T03:50:38;0.20;99.90
4604;DHT22;2314;48.272;11.562;2023-03-17T03:53:05;0.20;99.90
4604;DHT22;2314;48.272;11.562;2023-03-17T03:55:33;0.20;99.90
4604;DHT22;2314;48.272;11.562;2023-03-17T03:58:00;0.20;99.90
4604;DHT22;2314;48.272;11.562;2023-03-17T04:00:27;0.20;99.90
4604;DHT22;2314;48.272;11.562;2023-03-17T04:02:55;0.30;99.90
4604;DHT22;2314;48.272;11.562;2023-03-17T04:05:22;0.20;99.90
4604;DHT22;2314;48.272;11.562;2023-03-17T04:07:49;0.30;99.90
4604;DHT22;2314;48.272;11.562;2023-03-17T04:10:16;0.30;99.90
4604;DHT22;2314;48.272;11.562;2023-03-17T04:12:43;0.40;99.90
4604;DHT22;2314;48.272;11.562;2023-03-17T04:15:14;0.40;99.90
4604;DHT22;2314;48.272;11.562;2023-03-17T04:17:43;0.40;99.90
4604;DHT22;2314;48.272;11.562;2023-03-17T04:20:12;0.50;99.90
4604;DHT22;2314;48.272;11.562;2023-03-17T04:22:40;0.50;99.90
4604;DHT22;2314;48.272;11.562;2023-03-17T04:25:09;0.50;99.90
4604;DHT22;2314;48.272;11.562;2023-03-17T04:27:38;0.50;99.90
4604;DHT22;2314;48.272;11.562;2023-03-17T04:30:06;0.60;99.90
4604;DHT22;2314;48.272;11.562;2023-03-17T04:32:34;0.60;99.90
4604;DHT22;2314;48.272;11.562;2023-03-17T04:35:01;0.60;99.90
4604;DHT22;2314;48.272;11.562;2023-03-17T04:37:29;0.60;99.90
4604;DHT22;2314;48.272;11.562;2023-03-17T04:39:56;0.50;99.90
4604;DHT22;2314;48.272;11.562;2023-03-17T04:42:23;0.60;99.90
4604;DHT22;2314;48.272;11.562;2023-03-17T04:44:51;0.50;99.90
4604;DHT22;2314;48.272;11.562;2023-03-17T04:47:18;0.50;99.90
4604;DHT22;2314;48.272;11.562;2023-03-17T04:49:45;0.50;99.90
4604;DHT22;2314;48.272;11.562;2023-03-17T04:52:12;0.40;99.90
4604;DHT22;2314;48.272;11.562;2023-03-17T04:54:40;0.40;99.90
4604;DHT22;2314;48.272;11.562;2023-03-17T04:57:08;0.40;99.90
4604;DHT22;2314;48.272;11.562;2023-03-17T04:59:35;0.40;99.90
4604;DHT22;2314;48.272;11.562;2023-03-17T05:02:02;0.40;99.90
4604;DHT22;2314;48.272;11.562;2023-03-17T05:04:29;0.40;99.90
4604;DHT22;2314;48.272;11.562;2023-03-17T05:06:57;0.30;99.90
4604;DHT22;2314;48.272;11.562;2023-03-17T05:09:24;0.30;99.90
4604;DHT22;2314;48.272;11.562;2023-03-17T05:11:54;0.30;99.90
4604;DHT22;2314;48.272;11.562;2023-03-17T05:14:21;0.30;99.90
4604;DHT22;2314;48.272;11.562;2023-03-17T05:16:49;0.20;99.90
4604;DHT22;2314;48.272;11.562;2023-03-17T05:19:16;0.20;99.90
4604;DHT22;2314;48.272;11.562;2023-03-17T05:21:43;0.10;99.90
4604;DHT22;2314;48.272;11.562;2023-03-17T05:24:11;0.10;99.90
4604;DHT22;2314;48.272;11.562;2023-03-17T05:26:38;0.10;99.90
4604;DHT22;2314;48.272;11.562;2023-03-17T05:29:06;0.10;99.90
4604;DHT22;2314;48.272;11.562;2023-03-17T05:31:34;0.00;99.90
4604;DHT22;2314;48.272;11.562;2023-03-17T05:34:01;0.00;99.90
4604;DHT22;2314;48.272;11.562;2023-03-17T05:36:28;0.00;99.90
4604;DHT22;2314;48.272;11.562;2023-03-17T05:38:55;0.10;99.90
4604;DHT22;2314;48.272;11.562;2023-03-17T05:41:22;0.10;99.90
4604;DHT22;2314;48.272;11.562;2023-03-17T05:43:49;0.10;99.90
4604;DHT22;2314;48.272;11.562;2023-03-17T05:46:18;0.20;99.90
4604;DHT22;2314;48.272;11.562;2023-03-17T05:48:44;0.30;99.90
4604;DHT22;2314;48.272;11.562;2023-03-17T05:51:12;0.40;99.90
4604;DHT22;2314;48.272;11.562;2023-03-17T05:53:39;0.60;99.90
4604;DHT22;2314;48.272;11.562;2023-03-17T05:56:06;0.90;99.90
4604;DHT22;2314;48.272;11.562;2023-03-17T05:58:33;1.20;99.90
4604;DHT22;2314;48.272;11.562;2023-03-17T06:01:01;1.40;99.90
4604;DHT22;2314;48.272;11.562;2023-03-17T06:03:29;1.50;99.90
4604;DHT22;2314;48.272;11.562;2023-03-17T06:05:56;1.50;99.90
4604;DHT22;2314;48.272;11.562;2023-03-17T06:08:23;1.60;99.90
4604;DHT22;2314;48.272;11.562;2023-03-17T06:10:50;1.70;99.90
4604;DHT22;2314;48.272;11.562;2023-03-17T06:13:17;1.80;99.90
4604;DHT22;2314;48.272;11.562;2023-03-17T06:15:46;1.80;99.90
4604;DHT22;2314;48.272;11.562;2023-03-17T06:18:14;1.90;99.90
4604;DHT22;2314;48.272;11.562;2023-03-17T06:20:42;2.10;99.90
4604;DHT22;2314;48.272;11.562;2023-03-17T06:23:09;1.90;99.90
4604;DHT22;2314;48.272;11.562;2023-03-17T06:25:36;1.80;99.90
4604;DHT22;2314;48.272;11.562;2023-03-17T06:28:04;1.80;99.90
4604;DHT22;2314;48.272;11.562;2023-03-17T06:30:32;1.70;99.90
4604;DHT22;2314;48.272;11.562;2023-03-17T06:33:00;1.60;99.90
4604;DHT22;2314;48.272;11.562;2023-03-17T06:35:27;1.60;99.90
4604;DHT22;2314;48.272;11.562;2023-03-17T06:37:55;1.60;99.90
4604;DHT22;2314;48.272;11.562;2023-03-17T06:40:22;1.60;99.90
4604;DHT22;2314;48.272;11.562;2023-03-17T06:42:50;1.50;99.90
4604;DHT22;2314;48.272;11.562;2023-03-17T06:45:17;1.70;99.90
4604;DHT22;2314;48.272;11.562;2023-03-17T06:47:44;1.70;99.90
4604;DHT22;2314;48.272;11.562;2023-03-17T06:50:11;1.80;99.90
4604;DHT22;2314;48.272;11.562;2023-03-17T06:52:39;2.10;99.90
4604;DHT22;2314;48.272;11.562;2023-03-17T06:55:08;2.60;99.90
4604;DHT22;2314;48.272;11.562;2023-03-17T06:57:36;2.90;99.90
4604;DHT22;2314;48.272;11.562;2023-03-17T07:00:04;3.40;99.90
4604;DHT22;2314;48.272;11.562;2023-03-17T07:02:33;3.60;99.90
4604;DHT22;2314;48.272;11.562;2023-03-17T07:05:00;4.00;99.90
4604;DHT22;2314;48.272;11.562;2023-03-17T07:07:28;4.10;99.90
4604;DHT22;2314;48.272;11.562;2023-03-17T07:09:55;4.40;99.90
4604;DHT22;2314;48.272;11.562;2023-03-17T07:12:24;4.70;99.90
4604;DHT22;2314;48.272;11.562;2023-03-17T07:14:51;4.80;99.90
4604;DHT22;2314;48.272;11.562;2023-03-17T07:17:18;5.20;99.90
4604;DHT22;2314;48.272;11.562;2023-03-17T07:19:45;5.30;99.90
4604;DHT22;2314;48.272;11.562;2023-03-17T07:22:12;5.50;99.90
4604;DHT22;2314;48.272;11.562;2023-03-17T07:24:39;5.80;99.90
4604;DHT22;2314;48.272;11.562;2023-03-17T07:27:07;6.10;99.90
4604;DHT22;2314;48.272;11.562;2023-03-17T07:29:36;6.30;99.90
4604;DHT22;2314;48.272;11.562;2023-03-17T07:32:04;6.30;99.90
4604;DHT22;2314;48.272;11.562;2023-03-17T07:34:33;6.70;99.90
4604;DHT22;2314;48.272;11.562;2023-03-17T07:37:04;6.80;99.90
4604;DHT22;2314;48.272;11.562;2023-03-17T07:39:32;7.30;99.90
4604;DHT22;2314;48.272;11.562;2023-03-17T07:41:59;7.90;99.90
4604;DHT22;2314;48.272;11.562;2023-03-17T07:44:28;8.60;99.90
4604;DHT22;2314;48.272;11.562;2023-03-17T07:46:58;9.60;99.90
4604;DHT22;2314;48.272;11.562;2023-03-17T07:49:25;10.10;99.70
4604;DHT22;2314;48.272;11.562;2023-03-17T07:51:53;10.50;98.00
4604;DHT22;2314;48.272;11.562;2023-03-17T07:54:22;10.70;98.80
4604;DHT22;2314;48.272;11.562;2023-03-17T07:56:51;12.00;95.50
4604;DHT22;2314;48.272;11.562;2023-03-17T07:59:18;11.70;95.20
4604;DHT22;2314;48.272;11.562;2023-03-17T08:01:45;11.00;95.90
4604;DHT22;2314;48.272;11.562;2023-03-17T08:04:14;10.60;97.60
4604;DHT22;2314;48.272;11.562;2023-03-17T08:06:41;10.10;97.70
4604;DHT22;2314;48.272;11.562;2023-03-17T08:09:11;10.00;98.20
4604;DHT22;2314;48.272;11.562;2023-03-17T08:11:38;9.80;98.90
4604;DHT22;2314;48.272;11.562;2023-03-17T08:14:05;9.60;99.50
4604;DHT22;2314;48.272;11.562;2023-03-17T08:16:34;9.50;99.80
4604;DHT22;2314;48.272;11.562;2023-03-17T08:19:04;9.20;99.90
4604;DHT22;2314;48.272;11.562;2023-03-17T08:21:33;9.10;99.90
4604;DHT22;2314;48.272;11.562;2023-03-17T08:24:03;9.30;99.90
4604;DHT22;2314;48.272;11.562;2023-03-17T08:26:31;9.40;99.90
4604;DHT22;2314;48.272;11.562;2023-03-17T08:28:58;9.70;99.90
4604;DHT22;2314;48.272;11.562;2023-03-17T08:31:25;9.60;99.90
4604;DHT22;2314;48.272;11.562;2023-03-17T08:33:53;9.90;99.90
4604;DHT22;2314;48.272;11.562;2023-03-17T08:36:21;10.30;99.90
4604;DHT22;2314;48.272;11.562;2023-03-17T08:38:52;10.40;98.20
4604;DHT22;2314;48.272;11.562;2023-03-17T08:41:22;10.90;98.00
4604;DHT22;2314;48.272;11.562;2023-03-17T08:43:53;11.30;96.20
4604;DHT22;2314;48.272;11.562;2023-03-17T08:46:23;11.60;97.30
4604;DHT22;2314;48.272;11.562;2023-03-17T08:48:52;11.90;95.60
4604;DHT22;2314;48.272;11.562;2023-03-17T08:51:21;12.10;94.70
4604;DHT22;2314;48.272;11.562;2023-03-17T08:53:51;12.40;94.40
4604;DHT22;2314;48.272;11.562;2023-03-17T08:56:19;12.40;94.70
4604;DHT22;2314;48.272;11.562;2023-03-17T08:58:47;12.90;93.20
4604;DHT22;2314;48.272;11.562;2023-03-17T09:01:15;13.00;93.40
4604;DHT22;2314;48.272;11.562;2023-03-17T09:03:42;12.80;93.30
4604;DHT22;2314;48.272;11.562;2023-03-17T09:06:10;12.70;94.60
4604;DHT22;2314;48.272;11.562;2023-03-17T09:08:38;12.60;93.90
4604;DHT22;2314;48.272;11.562;2023-03-17T09:11:13;12.00;95.10
4604;DHT22;2314;48.272;11.562;2023-03-17T09:13:42;12.40;94.80
4604;DHT22;2314;48.272;11.562;2023-03-17T09:16:11;12.70;93.10
4604;DHT22;2314;48.272;11.562;2023-03-17T09:18:39;12.60;92.30
4604;DHT22;2314;48.272;11.562;2023-03-17T09:21:07;12.80;93.30
4604;DHT22;2314;48.272;11.562;2023-03-17T09:23:34;12.50;94.50
4604;DHT22;2314;48.272;11.562;2023-03-17T09:26:01;12.00;97.70
4604;DHT22;2314;48.272;11.562;2023-03-17T09:28:29;11.80;95.80
4604;DHT22;2314;48.272;11.562;2023-03-17T09:30:57;11.80;97.20
4604;DHT22;2314;48.272;11.562;2023-03-17T09:33:26;11.90;95.90
4604;DHT22;2314;48.272;11.562;2023-03-17T09:35:53;11.80;97.10
4604;DHT22;2314;48.272;11.562;2023-03-17T09:38:23;11.90;96.50
4604;DHT22;2314;48.272;11.562;2023-03-17T09:40:54;12.00;95.20
4604;DHT22;2314;48.272;11.562;2023-03-17T09:43:30;11.90;96.60
4604;DHT22;2314;48.272;11.562;2023-03-17T09:46:11;11.90;96.80
4604;DHT22;2314;48.272;11.562;2023-03-17T09:48:55;12.10;97.20
4604;DHT22;2314;48.272;11.562;2023-03-17T09:51:25;12.40;95.80
4604;DHT22;2314;48.272;11.562;2023-03-17T09:53:57;13.00;96.20
4604;DHT22;2314;48.272;11.562;2023-03-17T09:56:27;13.30;94.70
4604;DHT22;2314;48.272;11.562;2023-03-17T09:58:59;13.20;95.80
4604;DHT22;2314;48.272;11.562;2023-03-17T10:01:29;13.50;96.00
4604;DHT22;2314;48.272;11.562;2023-03-17T10:03:56;14.00;94.30
4604;DHT22;2314;48.272;11.562;2023-03-17T10:06:35;14.20;95.10
4604;DHT22;2314;48.272;11.562;2023-03-17T10:09:17;14.20;91.90
4604;DHT22;2314;48.272;11.562;2023-03-17T10:12:01;14.30;92.40
4604;DHT22;2314;48.272;11.562;2023-03-17T10:14:40;14.20;91.80
4604;DHT22;2314;48.272;11.562;2023-03-17T10:17:15;14.40;91.60
4604;DHT22;2314;48.272;11.562;2023-03-17T10:19:48;14.80;90.40
4604;DHT22;2314;48.272;11.562;2023-03-17T10:22:25;14.70;91.40
4604;DHT22;2314;48.272;11.562;2023-03-17T10:24:58;15.00;91.50
4604;DHT22;2314;48.272;11.562;2023-03-17T10:27:31;15.10;90.90
4604;DHT22;2314;48.272;11.562;2023-03-17T10:30:03;15.50;91.20
4604;DHT22;2314;48.272;11.562;2023-03-17T10:32:33;15.00;90.50
4604;DHT22;2314;48.272;11.562;2023-03-17T10:35:04;15.00;91.50
4604;DHT22;2314;48.272;11.562;2023-03-17T10:37:31;15.20;92.50
4604;DHT22;2314;48.272;11.562;2023-03-17T10:40:03;15.50;90.70
4604;DHT22;2314;48.272;11.562;2023-03-17T10:42:44;15.50;91.90
4604;DHT22;2314;48.272;11.562;2023-03-17T10:45:16;15.70;91.70
4604;DHT22;2314;48.272;11.562;2023-03-17T10:47:50;16.00;89.70
4604;DHT22;2314;48.272;11.562;2023-03-17T10:50:20;16.00;92.50
4604;DHT22;2314;48.272;11.562;2023-03-17T10:52:51;16.10;87.90
4604;DHT22;2314;48.272;11.562;2023-03-17T10:55:22;16.20;84.80
4604;DHT22;2314;48.272;11.562;2023-03-17T10:58:00;16.20;83.00
4604;DHT22;2314;48.272;11.562;2023-03-17T11:00:37;16.30;81.80
4604;DHT22;2314;48.272;11.562;2023-03-17T11:03:11;16.30;85.40
4604;DHT22;2314;48.272;11.562;2023-03-17T11:05:53;16.40;80.50
4604;DHT22;2314;48.272;11.562;2023-03-17T11:08:22;16.60;77.60
4604;DHT22;2314;48.272;11.562;2023-03-17T11:10:54;16.60;83.20
4604;DHT22;2314;48.272;11.562;2023-03-17T11:13:28;16.80;83.10
4604;DHT22;2314;48.272;11.562;2023-03-17T11:16:06;16.80;84.30
4604;DHT22;2314;48.272;11.562;2023-03-17T11:18:37;16.80;88.50
4604;DHT22;2314;48.272;11.562;2023-03-17T11:21:09;16.90;89.90
4604;DHT22;2314;48.272;11.562;2023-03-17T11:23:47;16.50;89.10
4604;DHT22;2314;48.272;11.562;2023-03-17T11:26:33;16.50;90.10
4604;DHT22;2314;48.272;11.562;2023-03-17T11:29:21;16.70;88.00
4604;DHT22;2314;48.272;11.562;2023-03-17T11:32:03;16.80;87.40
4604;DHT22;2314;48.272;11.562;2023-03-17T11:38:19;16.30;91.70
4604;DHT22;2314;48.272;11.562;2023-03-17T11:41:13;16.20;91.50
4604;DHT22;2314;48.272;11.562;2023-03-17T11:47:37;15.80;92.00
4604;DHT22;2314;48.272;11.562;2023-03-17T11:50:17;16.10;90.70
4604;DHT22;2314;48.272;11.562;2023-03-17T11:53:00;16.40;92.70
4604;DHT22;2314;48.272;11.562;2023-03-17T11:55:40;16.50;91.20
4604;DHT22;2314;48.272;11.562;2023-03-17T11:58:13;16.60;90.80
4604;DHT22;2314;48.272;11.562;2023-03-17T12:00:49;16.50;91.30
4604;DHT22;2314;48.272;11.562;2023-03-17T12:03:21;16.20;90.90
4604;DHT22;2314;48.272;11.562;2023-03-17T12:05:56;16.30;91.90
4604;DHT22;2314;48.272;11.562;2023-03-17T12:08:36;16.70;90.00
4604;DHT22;2314;48.272;11.562;2023-03-17T12:11:09;17.00;87.80
4604;DHT22;2314;48.272;11.562;2023-03-17T12:13:43;17.30;85.40
4604;DHT22;2314;48.272;11.562;2023-03-17T12:16:15;17.30;84.30
4604;DHT22;2314;48.272;11.562;2023-03-17T12:19:02;17.20;86.00
4604;DHT22;2314;48.272;11.562;2023-03-17T12:21:36;17.20;90.20
4604;DHT22;2314;48.272;11.562;2023-03-17T12:24:11;17.00;91.00
4604;DHT22;2314;48.272;11.562;2023-03-17T12:26:48;16.70;89.10
4604;DHT22;2314;48.272;11.562;2023-03-17T12:29:24;16.50;86.30
4604;DHT22;2314;48.272;11.562;2023-03-17T12:31:57;16.40;87.60
4604;DHT22;2314;48.272;11.562;2023-03-17T12:34:34;16.20;89.30
4604;DHT22;2314;48.272;11.562;2023-03-17T12:37:04;16.30;88.20
4604;DHT22;2314;48.272;11.562;2023-03-17T12:39:33;16.30;90.40
4604;DHT22;2314;48.272;11.562;2023-03-17T12:42:11;16.30;90.80
4604;DHT22;2314;48.272;11.562;2023-03-17T12:45:04;16.40;90.30
4604;DHT22;2314;48.272;11.562;2023-03-17T12:47:52;16.80;90.20
4604;DHT22;2314;48.272;11.562;2023-03-17T12:50:50;16.80;90.10
4604;DHT22;2314;48.272;11.562;2023-03-17T12:53:31;16.90;89.10
4604;DHT22;2314;48.272;11.562;2023-03-17T12:56:06;17.10;89.60
4604;DHT22;2314;48.272;11.562;2023-03-17T12:58:38;17.10;89.50
4604;DHT22;2314;48.272;11.562;2023-03-17T13:01:15;17.10;88.40
4604;DHT22;2314;48.272;11.562;2023-03-17T13:04:13;17.40;86.70
4604;DHT22;2314;48.272;11.562;2023-03-17T13:06:45;17.20;86.60
4604;DHT22;2314;48.272;11.562;2023-03-17T13:09:42;17.20;88.30
4604;DHT22;2314;48.272;11.562;2023-03-17T13:12:54;17.20;87.30
4604;DHT22;2314;48.272;11.562;2023-03-17T13:15:26;17.10;86.00
4604;DHT22;2314;48.272;11.562;2023-03-17T13:18:26;17.30;88.80
4604;DHT22;2314;48.272;11.562;2023-03-17T13:21:33;17.20;86.50
4604;DHT22;2314;48.272;11.562;2023-03-17T13:24:33;17.20;84.40
4604;DHT22;2314;48.272;11.562;2023-03-17T13:27:13;17.30;85.50
4604;DHT22;2314;48.272;11.562;2023-03-17T13:29:46;17.40;83.40
4604;DHT22;2314;48.272;11.562;2023-03-17T13:32:34;17.20;87.60
4604;DHT22;2314;48.272;11.562;2023-03-17T13:35:20;17.30;87.00
4604;DHT22;2314;48.272;11.562;2023-03-17T13:41:33;17.40;83.40
4604;DHT22;2314;48.272;11.562;2023-03-17T13:44:15;17.40;85.30
4604;DHT22;2314;48.272;11.562;2023-03-17T13:46:53;17.30;84.10
4604;DHT22;2314;48.272;11.562;2023-03-17T13:49:24;17.10;90.00
4604;DHT22;2314;48.272;11.562;2023-03-17T13:52:00;17.00;87.40
4604;DHT22;2314;48.272;11.562;2023-03-17T13:54:32;16.90;86.40
4604;DHT22;2314;48.272;11.562;2023-03-17T13:57:25;17.00;88.60
4604;DHT22;2314;48.272;11.562;2023-03-17T13:59:56;16.90;86.50
4604;DHT22;2314;48.272;11.562;2023-03-17T14:02:29;17.00;85.20
4604;DHT22;2314;48.272;11.562;2023-03-17T14:04:59;17.10;86.00
4604;DHT22;2314;48.272;11.562;2023-03-17T14:07:31;17.10;85.90
4604;DHT22;2314;48.272;11.562;2023-03-17T14:10:15;17.10;88.60
4604;DHT22;2314;48.272;11.562;2023-03-17T14:12:51;17.20;86.50
4604;DHT22;2314;48.272;11.562;2023-03-17T14:15:27;17.00;88.90
4604;DHT22;2314;48.272;11.562;2023-03-17T14:17:59;17.00;90.20
4604;DHT22;2314;48.272;11.562;2023-03-17T14:20:30;16.90;88.00
4604;DHT22;2314;48.272;11.562;2023-03-17T14:22:59;16.90;88.30
4604;DHT22;2314;48.272;11.562;2023-03-17T14:25:31;16.90;90.00
4604;DHT22;2314;48.272;11.562;2023-03-17T14:28:03;16.80;89.70
4604;DHT22;2314;48.272;11.562;2023-03-17T14:30:33;16.90;91.10
4604;DHT22;2314;48.272;11.562;2023-03-17T14:33:04;16.90;90.00
4604;DHT22;2314;48.272;11.562;2023-03-17T14:35:34;16.80;92.90
4604;DHT22;2314;48.272;11.562;2023-03-17T14:38:16;16.60;91.80
4604;DHT22;2314;48.272;11.562;2023-03-17T14:40:44;16.50;92.10
4604;DHT22;2314;48.272;11.562;2023-03-17T14:43:13;16.60;91.50
4604;DHT22;2314;48.272;11.562;2023-03-17T14:45:47;16.50;91.20
4604;DHT22;2314;48.272;11.562;2023-03-17T14:48:17;16.50;90.90
4604;DHT22;2314;48.272;11.562;2023-03-17T14:50:50;16.30;92.90
4604;DHT22;2314;48.272;11.562;2023-03-17T14:53:20;16.40;91.70
4604;DHT22;2314;48.272;11.562;2023-03-17T14:55:50;16.40;92.00
4604;DHT22;2314;48.272;11.562;2023-03-17T14:58:22;16.20;92.50
4604;DHT22;2314;48.272;11.562;2023-03-17T15:00:55;16.10;92.90
4604;DHT22;2314;48.272;11.562;2023-03-17T15:03:31;16.00;93.10
4604;DHT22;2314;48.272;11.562;2023-03-17T15:06:20;15.90;93.40
4604;DHT22;2314;48.272;11.562;2023-03-17T15:08:49;15.80;94.80
4604;DHT22;2314;48.272;11.562;2023-03-17T15:11:20;15.80;95.50
4604;DHT22;2314;48.272;11.562;2023-03-17T15:13:55;15.80;94.00
4604;DHT22;2314;48.272;11.562;2023-03-17T15:16:33;15.80;93.40
4604;DHT22;2314;48.272;11.562;2023-03-17T15:19:06;15.70;94.50
4604;DHT22;2314;48.272;11.562;2023-03-17T15:21:41;15.80;93.10
4604;DHT22;2314;48.272;11.562;2023-03-17T15:24:25;15.80;95.10
4604;DHT22;2314;48.272;11.562;2023-03-17T15:26:59;15.70;94.10
4604;DHT22;2314;48.272;11.562;2023-03-17T15:29:29;15.80;93.70
4604;DHT22;2314;48.272;11.562;2023-03-17T15:32:01;15.80;94.30
4604;DHT22;2314;48.272;11.562;2023-03-17T15:34:36;15.80;95.30
4604;DHT22;2314;48.272;11.562;2023-03-17T15:37:05;15.90;94.10
4604;DHT22;2314;48.272;11.562;2023-03-17T15:39:41;16.00;94.40
4604;DHT22;2314;48.272;11.562;2023-03-17T15:42:08;16.10;93.60
4604;DHT22;2314;48.272;11.562;2023-03-17T15:44:36;16.10;93.70
4604;DHT22;2314;48.272;11.562;2023-03-17T15:47:04;16.00;92.50
4604;DHT22;2314;48.272;11.562;2023-03-17T15:49:31;16.10;92.30
4604;DHT22;2314;48.272;11.562;2023-03-17T15:51:59;16.10;92.30
4604;DHT22;2314;48.272;11.562;2023-03-17T15:54:26;15.90;93.20
4604;DHT22;2314;48.272;11.562;2023-03-17T15:56:54;15.80;92.30
4604;DHT22;2314;48.272;11.562;2023-03-17T15:59:21;15.90;91.60
4604;DHT22;2314;48.272;11.562;2023-03-17T16:01:49;15.80;90.60
4604;DHT22;2314;48.272;11.562;2023-03-17T16:04:16;15.60;91.00
4604;DHT22;2314;48.272;11.562;2023-03-17T16:06:44;15.50;92.00
4604;DHT22;2314;48.272;11.562;2023-03-17T16:09:15;15.30;91.70
4604;DHT22;2314;48.272;11.562;2023-03-17T16:11:42;15.20;92.30
4604;DHT22;2314;48.272;11.562;2023-03-17T16:14:09;15.00;93.50
4604;DHT22;2314;48.272;11.562;2023-03-17T16:16:38;14.80;92.10
4604;DHT22;2314;48.272;11.562;2023-03-17T16:19:15;14.70;91.50
4604;DHT22;2314;48.272;11.562;2023-03-17T16:21:44;14.60;91.40
4604;DHT22;2314;48.272;11.562;2023-03-17T16:24:16;14.40;93.40
4604;DHT22;2314;48.272;11.562;2023-03-17T16:26:45;14.30;92.60
4604;DHT22;2314;48.272;11.562;2023-03-17T16:29:12;14.10;93.20